Time;durP1;ratioP1;P1;durP2;ratioP2;P2;SDS_P1;SDS_P2;PMS_P1;PMS_P2;Temp;Humidity;BMP_temperature;BMP_pressure;BME280_temperature;BME280_humidity;BME280_pressure;Samples;Min_cycle;Max_cycle;Signal;HPM_P1;HPM_P2
2023/08/08 00:02:02;;;;;;;1.30;1.30;;;;;;;15.44;100.00;63593.78;5077882;28;20228;-74
2023/08/08 00:04:29;;;;;;;1.02;1.02;;;;;;;15.49;100.00;63604.13;5083440;28;20300;-73
2023/08/08 00:06:56;;;;;;;0.98;0.98;;;;;;;15.41;100.00;63592.72;5080953;28;20234;-74
2023/08/08 00:09:23;;;;;;;1.10;1.10;;;;;;;15.16;100.00;63562.09;5084323;28;20213;-74
2023/08/08 00:11:50;;;;;;;1.10;1.10;;;;;;;15.00;100.00;63546.00;5085140;28;20204;-73
2023/08/08 00:14:17;;;;;;;1.65;1.40;;;;;;;14.94;100.00;63542.31;5081658;28;20273;-74
2023/08/08 00:16:45;;;;;;;1.40;1.40;;;;;;;14.91;100.00;63539.22;5084071;28;20200;-75
2023/08/08 00:19:12;;;;;;;1.35;1.35;;;;;;;15.01;100.00;63547.03;5084021;28;20275;-74
2023/08/08 00:21:39;;;;;;;1.30;1.30;;;;;;;14.91;100.00;63539.22;5065190;28;20225;-73
2023/08/08 00:24:06;;;;;;;1.48;1.42;;;;;;;14.94;100.00;63544.38;5081001;28;20216;-73
2023/08/08 00:26:33;;;;;;;2.03;1.42;;;;;;;14.97;100.00;63545.44;5083519;28;20200;-74
2023/08/08 00:29:00;;;;;;;1.58;1.50;;;;;;;14.93;100.00;63538.72;5082683;28;20220;-73
2023/08/08 00:31:27;;;;;;;1.20;1.20;;;;;;;14.92;100.00;63542.28;5083763;28;20200;-73
2023/08/08 00:33:55;;;;;;;1.20;1.20;;;;;;;14.86;100.00;63536.06;5081216;28;20525;-74
2023/08/08 00:36:22;;;;;;;1.50;1.50;;;;;;;14.71;100.00;63523.03;5083315;28;20575;-74
2023/08/08 00:38:49;;;;;;;1.95;1.85;;;;;;;14.67;100.00;63514.28;5080594;28;20274;-72
2023/08/08 00:41:16;;;;;;;1.73;1.73;;;;;;;14.64;100.00;63513.72;5082859;28;20262;-74
2023/08/08 00:43:44;;;;;;;3.45;2.13;;;;;;;14.61;100.00;63510.63;5083757;28;20224;-73
2023/08/08 00:46:12;;;;;;;1.60;1.60;;;;;;;14.61;100.00;63508.06;5082815;28;20411;-73
2023/08/08 00:48:39;;;;;;;1.70;1.70;;;;;;;14.56;100.00;63499.78;5085504;28;20239;-73
2023/08/08 00:51:08;;;;;;;2.00;1.90;;;;;;;14.54;100.00;63500.25;5080318;28;20223;-73
2023/08/08 00:53:35;;;;;;;1.65;1.55;;;;;;;14.47;100.00;63490.41;5083349;28;20225;-74
2023/08/08 00:56:02;;;;;;;1.60;1.60;;;;;;;14.41;100.00;63484.72;5080167;28;20205;-74
2023/08/08 00:58:29;;;;;;;1.85;1.75;;;;;;;14.32;100.00;63483.06;5082413;28;20208;-75
2023/08/08 01:00:59;;;;;;;1.73;1.73;;;;;;;14.30;100.00;63473.28;5083214;28;20204;-73
2023/08/08 01:03:28;;;;;;;2.10;2.00;;;;;;;14.34;100.00;63479.50;5084466;28;20212;-73
2023/08/08 01:06:02;;;;;;;1.65;1.60;;;;;;;14.32;100.00;63475.38;5082041;28;20513;-75
2023/08/08 01:08:37;;;;;;;1.80;1.80;;;;;;;14.38;100.00;63484.16;5081837;28;20220;-73
2023/08/08 01:11:05;;;;;;;1.60;1.60;;;;;;;14.44;100.00;63487.31;5062993;28;20192;-72
2023/08/08 01:13:32;;;;;;;2.40;2.17;;;;;;;14.49;100.00;63495.59;5080420;28;20236;-73
2023/08/08 01:16:00;;;;;;;1.45;1.45;;;;;;;14.51;100.00;63497.16;5088110;28;20271;-73
2023/08/08 01:18:28;;;;;;;1.40;1.40;;;;;;;14.54;100.00;63500.78;5081164;28;20224;-73
2023/08/08 01:20:56;;;;;;;1.50;1.50;;;;;;;14.55;100.00;63501.28;5082659;28;20407;-73
2023/08/08 01:23:29;;;;;;;1.90;1.50;;;;;;;14.55;100.00;63498.72;5081312;28;20236;-72
2023/08/08 01:25:59;;;;;;;1.27;1.27;;;;;;;14.53;100.00;63499.22;5082889;28;20213;-73
2023/08/08 01:28:27;;;;;;;1.45;1.40;;;;;;;14.54;100.00;63505.38;5079898;28;20228;-72
2023/08/08 01:30:54;;;;;;;1.33;1.33;;;;;;;14.48;100.00;63491.47;5084704;28;20197;-72
2023/08/08 01:33:21;;;;;;;1.20;1.20;;;;;;;14.49;100.00;63495.59;5082646;28;20247;-73
2023/08/08 01:35:54;;;;;;;1.30;1.30;;;;;;;14.45;100.00;63488.88;5080323;28;20208;-73
2023/08/08 01:38:27;;;;;;;1.08;1.08;;;;;;;14.38;100.00;63481.06;5083125;28;20254;-73
2023/08/08 01:40:57;;;;;;;1.50;1.50;;;;;;;14.41;100.00;63487.28;5080739;28;20734;-72
2023/08/08 01:43:27;;;;;;;1.58;1.48;;;;;;;14.34;100.00;63484.63;5082659;28;20287;-73
2023/08/08 01:45:55;;;;;;;1.50;1.50;;;;;;;14.28;100.00;63471.22;5082426;28;20197;-71
2023/08/08 01:48:22;;;;;;;1.60;1.50;;;;;;;14.15;100.00;63462.81;5084380;28;20510;-74
2023/08/08 01:50:49;;;;;;;1.50;1.50;;;;;;;14.14;100.00;63459.22;5080109;28;20277;-73
2023/08/08 01:53:16;;;;;;;1.63;1.50;;;;;;;14.16;100.00;63460.78;5083097;28;20437;-75
2023/08/08 01:55:43;;;;;;;1.85;1.75;;;;;;;14.17;100.00;63467.44;5080981;28;20204;-73
2023/08/08 01:58:10;;;;;;;2.03;1.92;;;;;;;14.17;100.00;63462.31;5082710;28;20216;-72
2023/08/08 02:00:40;;;;;;;1.70;1.60;;;;;;;14.20;100.00;63468.03;5082315;28;20596;-73
2023/08/08 02:03:07;;;;;;;2.25;1.65;;;;;;;14.22;100.00;63470.06;5080180;28;20232;-74
2023/08/08 02:05:34;;;;;;;1.80;1.80;;;;;;;14.21;100.00;63463.41;5071598;28;20197;-73
2023/08/08 02:08:01;;;;;;;1.83;1.83;;;;;;;14.22;100.00;63464.97;5072637;28;20220;-73
2023/08/08 02:10:28;;;;;;;1.90;1.80;;;;;;;14.30;100.00;63480.97;5086352;28;20197;-74
2023/08/08 02:12:55;;;;;;;1.40;1.40;;;;;;;14.31;100.00;63478.94;5083284;28;20227;-74
2023/08/08 02:15:22;;;;;;;1.92;1.83;;;;;;;14.31;100.00;63476.38;5086337;28;20195;-73
2023/08/08 02:17:51;;;;;;;2.08;1.70;;;;;;;14.30;100.00;63472.78;5086923;28;20200;-74
2023/08/08 02:20:19;;;;;;;1.65;1.55;;;;;;;14.30;100.00;63475.84;5086598;28;20250;-72
2023/08/08 02:22:46;;;;;;;1.67;1.60;;;;;;;14.23;100.00;63468.03;5086875;28;20251;-73
2023/08/08 02:25:13;;;;;;;1.95;1.85;;;;;;;14.23;100.00;63466.00;5085778;28;20390;-74
2023/08/08 02:27:40;;;;;;;2.00;1.98;;;;;;;14.33;100.00;63483.56;5075159;28;20196;-74
2023/08/08 02:30:08;;;;;;;2.72;2.38;;;;;;;14.31;100.00;63478.94;5083987;28;20224;-75
2023/08/08 02:32:35;;;;;;;2.08;1.60;;;;;;;14.34;100.00;63474.88;5080806;28;20275;-74
2023/08/08 02:35:04;;;;;;;1.50;1.50;;;;;;;14.38;100.00;63488.75;5083961;28;20224;-74
2023/08/08 02:37:30;;;;;;;2.00;1.90;;;;;;;14.30;100.00;63475.34;5086420;28;20465;-73
2023/08/08 02:39:57;;;;;;;1.55;1.55;;;;;;;14.26;100.00;63469.13;5086678;28;20220;-72
2023/08/08 02:42:24;;;;;;;2.22;2.13;;;;;;;14.34;100.00;63477.44;5084152;28;20221;-74
2023/08/08 02:44:51;;;;;;;2.10;2.00;;;;;;;14.37;100.00;63482.59;5084411;28;20220;-75
2023/08/08 02:47:18;;;;;;;1.60;1.60;;;;;;;14.36;100.00;63487.19;5091182;28;20196;-74
2023/08/08 02:49:45;;;;;;;2.17;2.08;;;;;;;14.44;100.00;63495.53;5083754;28;20287;-74
2023/08/08 02:52:14;;;;;;;2.10;2.00;;;;;;;14.40;100.00;63483.16;5086553;28;20502;-75
2023/08/08 02:54:42;;;;;;;2.05;1.95;;;;;;;14.43;100.00;63489.34;5083585;28;20220;-73
2023/08/08 02:57:10;;;;;;;2.40;2.20;;;;;;;14.39;100.00;63482.13;5084335;28;20189;-75
2023/08/08 02:59:37;;;;;;;2.58;2.40;;;;;;;14.43;100.00;63489.34;5086327;28;20223;-74
2023/08/08 03:02:05;;;;;;;2.38;2.28;;;;;;;14.48;100.00;63497.09;5083853;28;20575;-75
2023/08/08 03:04:32;;;;;;;2.30;2.20;;;;;;;14.46;100.00;63491.94;5087228;28;20216;-73
2023/08/08 03:07:01;;;;;;;2.13;2.03;;;;;;;14.47;100.00;63492.97;5083907;28;20508;-75
2023/08/08 03:09:29;;;;;;;2.58;2.35;;;;;;;14.57;100.00;63501.31;5084419;28;20246;-75
2023/08/08 03:11:56;;;;;;;1.73;1.73;;;;;;;14.51;100.00;63494.59;5076855;28;20200;-75
2023/08/08 03:14:23;;;;;;;2.92;2.55;;;;;;;14.47;100.00;63493.50;5087048;28;20280;-75
2023/08/08 03:16:50;;;;;;;2.90;2.70;;;;;;;14.51;100.00;63495.09;5083168;28;20242;-72
2023/08/08 03:19:17;;;;;;;2.47;2.38;;;;;;;14.55;100.00;63501.28;5084140;28;20500;-76
2023/08/08 03:21:44;;;;;;;2.42;2.33;;;;;;;14.56;100.00;63499.78;5082876;28;20199;-75
2023/08/08 03:24:11;;;;;;;2.30;2.20;;;;;;;14.60;100.00;63504.44;5084723;28;20216;-75
2023/08/08 03:26:40;;;;;;;2.88;2.67;;;;;;;14.55;100.00;63503.84;5082120;28;20242;-73
2023/08/08 03:29:09;;;;;;;2.35;2.25;;;;;;;14.56;100.00;63505.44;5088524;28;20229;-73
2023/08/08 03:31:36;;;;;;;2.33;2.22;;;;;;;14.49;100.00;63492.50;5086181;28;20544;-74
2023/08/08 03:34:04;;;;;;;2.67;2.47;;;;;;;14.39;100.00;63484.69;5081947;28;20224;-73
2023/08/08 03:36:31;;;;;;;2.38;2.28;;;;;;;14.47;100.00;63493.50;5084807;28;20390;-76
2023/08/08 03:38:58;;;;;;;2.60;2.50;;;;;;;14.44;100.00;63487.84;5082099;28;20262;-75
2023/08/08 03:41:25;;;;;;;2.58;2.28;;;;;;;14.43;100.00;63489.34;5084627;28;20220;-76
2023/08/08 03:43:54;;;;;;;2.65;2.50;;;;;;;14.49;100.00;63495.59;5086410;28;20232;-75
2023/08/08 03:46:21;;;;;;;2.45;2.35;;;;;;;14.51;100.00;63497.66;5086858;28;20195;-74
2023/08/08 03:48:48;;;;;;;3.20;2.75;;;;;;;14.55;100.00;63504.38;5082156;28;20224;-74
2023/08/08 03:51:15;;;;;;;3.00;2.90;;;;;;;14.57;100.00;63506.44;5083972;28;20267;-75
2023/08/08 03:53:42;;;;;;;3.13;2.85;;;;;;;14.62;100.00;63509.09;5084186;28;20236;-75
2023/08/08 03:56:09;;;;;;;2.83;2.72;;;;;;;14.76;100.00;63520.53;5082887;28;20212;-76
2023/08/08 03:58:36;;;;;;;2.83;2.72;;;;;;;14.78;100.00;63530.84;5079667;28;20216;-75
2023/08/08 04:01:05;;;;;;;2.50;2.40;;;;;;;14.92;100.00;63540.25;5081887;28;20196;-77
2023/08/08 04:03:32;;;;;;;2.60;2.50;;;;;;;15.02;100.00;63555.78;5085177;28;20239;-76
2023/08/08 04:05:59;;;;;;;2.30;2.20;;;;;;;15.07;100.00;63550.72;5082933;28;20490;-75
2023/08/08 04:08:26;;;;;;;3.78;2.47;;;;;;;15.05;100.00;63548.09;5079945;28;20240;-76
2023/08/08 04:10:53;;;;;;;2.40;2.30;;;;;;;15.18;100.00;63571.88;5084819;28;20218;-76
2023/08/08 04:13:20;;;;;;;2.78;2.67;;;;;;;15.15;100.00;63557.97;5086481;28;20390;-75
2023/08/08 04:15:47;;;;;;;3.03;2.55;;;;;;;15.06;100.00;63551.72;5081403;28;20192;-75
2023/08/08 04:18:16;;;;;;;3.10;3.00;;;;;;;14.96;100.00;63544.41;5079759;28;20463;-76
2023/08/08 04:20:44;;;;;;;2.90;2.72;;;;;;;15.05;100.00;63556.31;5084785;28;20461;-76
2023/08/08 04:23:11;;;;;;;3.00;2.90;;;;;;;15.13;100.00;63561.56;5083147;28;20246;-78
2023/08/08 04:25:38;;;;;;;2.70;2.60;;;;;;;14.87;100.00;63535.06;5084331;28;20239;-74
2023/08/08 04:28:05;;;;;;;2.90;2.80;;;;;;;14.85;100.00;63535.03;5083628;28;20279;-75
2023/08/08 04:30:32;;;;;;;3.10;2.72;;;;;;;14.80;100.00;63529.84;5084631;28;20197;-76
2023/08/08 04:32:59;;;;;;;2.90;2.80;;;;;;;14.64;100.00;63511.16;5080442;28;20220;-73
2023/08/08 04:35:27;;;;;;;2.90;2.75;;;;;;;14.61;100.00;63510.63;5084209;28;20196;-75
2023/08/08 04:37:54;;;;;;;2.88;2.78;;;;;;;14.76;100.00;63523.63;5083939;28;20279;-74
2023/08/08 04:40:21;;;;;;;2.60;2.50;;;;;;;14.73;100.00;63514.88;5084423;28;20227;-76
2023/08/08 04:42:48;;;;;;;3.30;3.10;;;;;;;14.78;100.00;63522.63;5071685;28;20431;-76
2023/08/08 04:45:15;;;;;;;3.20;3.00;;;;;;;14.84;100.00;63534.50;5078137;28;20238;-74
2023/08/08 04:47:42;;;;;;;3.05;2.85;;;;;;;15.04;100.00;63552.19;5083358;28;20559;-73
2023/08/08 04:50:10;;;;;;;2.92;2.83;;;;;;;15.18;100.00;63564.19;5080895;28;20205;-73
2023/08/08 04:52:38;;;;;;;2.65;2.55;;;;;;;15.23;100.00;63571.94;5085880;28;20259;-74
2023/08/08 04:55:06;;;;;;;2.80;2.70;;;;;;;15.15;100.00;63563.63;5080149;28;20201;-75
2023/08/08 04:57:33;;;;;;;2.53;2.42;;;;;;;15.13;100.00;63555.91;5082829;28;20200;-74
2023/08/08 05:00:04;;;;;;;2.70;2.60;;;;;;;15.12;100.00;63565.13;5080368;28;20200;-76
2023/08/08 05:02:31;;;;;;;3.50;2.63;;;;;;;15.38;100.00;63584.44;5082412;28;20227;-75
2023/08/08 05:04:58;;;;;;;2.95;2.80;;;;;;;15.41;100.00;63592.72;5081382;28;20211;-74
2023/08/08 05:07:25;;;;;;;3.08;2.90;;;;;;;15.55;100.00;63609.84;5082691;28;20222;-74
2023/08/08 05:09:53;;;;;;;3.10;2.95;;;;;;;15.48;100.00;63597.94;5079008;28;20266;-75
2023/08/08 05:12:21;;;;;;;8.50;3.33;;;;;;;15.59;100.00;63614.00;5080711;28;20204;-75
2023/08/08 05:14:47;;;;;;;3.55;3.25;;;;;;;15.39;100.00;63593.72;5083421;28;20277;-76
2023/08/08 05:17:14;;;;;;;2.85;2.75;;;;;;;15.59;100.00;63611.44;5082962;28;20204;-74
2023/08/08 05:19:41;;;;;;;2.97;2.78;;;;;;;15.76;100.00;63623.97;5083890;28;20275;-73
2023/08/08 05:22:08;;;;;;;2.47;2.38;;;;;;;15.97;100.00;63651.47;5085216;28;20196;-75
2023/08/08 05:24:35;;;;;;;2.33;2.25;;;;;;;15.84;100.00;63634.88;5083820;28;20231;-72
2023/08/08 05:27:04;;;;;;;2.40;2.30;;;;;;;15.59;100.00;63611.44;5083020;28;20215;-76
2023/08/08 05:29:31;;;;;;;2.42;2.33;;;;;;;15.64;100.00;63617.16;5082895;28;20220;-73
2023/08/08 05:31:58;;;;;;;1.80;1.80;;;;;;;15.70;100.00;63620.31;5084155;28;20393;-75
2023/08/08 05:34:25;;;;;;;1.67;1.67;;;;;;;15.78;100.00;63629.13;5083949;28;20224;-75
2023/08/08 05:36:52;;;;;;;2.28;2.17;;;;;;;15.82;100.00;63632.78;5084359;28;20197;-75
2023/08/08 05:39:19;;;;;;;2.65;2.55;;;;;;;15.90;100.00;63646.22;5083389;28;20212;-75
2023/08/08 05:41:46;;;;;;;5.05;2.47;;;;;;;15.90;100.00;63641.09;5086170;28;20223;-75
2023/08/08 05:44:15;;;;;;;2.00;1.95;;;;;;;15.75;100.00;63628.06;5087733;28;20453;-74
2023/08/08 05:46:42;;;;;;;2.38;2.28;;;;;;;15.52;100.00;63602.09;5088314;28;20521;-74
2023/08/08 05:49:09;;;;;;;2.35;2.28;;;;;;;15.70;100.00;63620.81;5088754;28;20216;-75
2023/08/08 05:51:36;;;;;;;2.60;1.85;;;;;;;15.79;100.00;63627.09;5088580;28;20203;-75
2023/08/08 05:54:03;;;;;;;3.30;2.20;;;;;;;16.28;100.00;63685.75;5088046;28;20274;-74
2023/08/08 05:56:36;;;;;;;2.38;2.05;;;;;;;16.50;99.71;63705.56;5088146;28;20228;-75
2023/08/08 05:59:03;;;;;;;3.08;2.42;;;;;;;16.69;98.46;63722.75;5087720;28;20212;-75
2023/08/08 06:01:32;;;;;;;2.40;2.30;;;;;;;16.78;95.61;63732.13;5090455;28;20218;-75
2023/08/08 06:03:59;;;;;;;2.88;2.78;;;;;;;16.75;95.20;63734.16;5088546;28;20255;-76
2023/08/08 06:06:26;;;;;;;2.72;2.63;;;;;;;16.78;96.94;63726.97;5089157;28;20204;-74
2023/08/08 06:08:53;;;;;;;2.97;2.88;;;;;;;16.73;95.45;63730.03;5088062;28;20282;-76
2023/08/08 06:11:21;;;;;;;3.25;3.05;;;;;;;16.81;96.81;63735.25;5088122;28;20200;-74
2023/08/08 06:13:48;;;;;;;3.42;3.33;;;;;;;16.81;96.20;63740.38;5088350;28;20223;-73
2023/08/08 06:16:16;;;;;;;2.63;2.53;;;;;;;16.95;92.79;63747.25;5087817;28;20192;-74
2023/08/08 06:18:44;;;;;;;4.43;2.90;;;;;;;16.36;99.66;63688.94;5090089;28;20216;-75
2023/08/08 06:21:11;;;;;;;3.35;3.05;;;;;;;16.47;97.66;63702.44;5088480;28;20203;-74
2023/08/08 06:23:38;;;;;;;3.47;3.17;;;;;;;16.38;99.54;63695.63;5087361;28;20231;-75
2023/08/08 06:26:06;;;;;;;2.85;2.75;;;;;;;16.60;96.72;63711.34;5088345;28;20535;-74
2023/08/08 06:28:33;;;;;;;3.00;2.80;;;;;;;16.82;92.57;63734.25;5088574;28;20212;-75
2023/08/08 06:31:00;;;;;;;2.55;2.45;;;;;;;16.95;90.52;63747.25;5090345;28;20235;-75
2023/08/08 06:33:28;;;;;;;2.50;2.40;;;;;;;17.34;88.04;63787.84;5091110;28;20227;-73
2023/08/08 06:35:56;;;;;;;2.67;2.47;;;;;;;17.62;82.37;63819.59;5090380;28;20200;-76
2023/08/08 06:38:23;;;;;;;2.55;2.35;;;;;;;17.38;82.60;63794.06;5087377;28;20239;-74
2023/08/08 06:40:51;;;;;;;2.70;2.50;;;;;;;17.39;82.85;63795.63;5087695;28;20253;-75
2023/08/08 06:43:18;;;;;;;2.10;2.00;;;;;;;17.51;80.21;63812.75;5087891;28;20593;-75
2023/08/08 06:45:45;;;;;;;1.83;1.73;;;;;;;17.07;75.08;63767.97;5089634;28;20203;-74
2023/08/08 06:48:12;;;;;;;1.95;1.80;;;;;;;16.85;80.45;63739.41;5087649;28;20224;-73
2023/08/08 06:50:39;;;;;;;1.52;1.52;;;;;;;16.65;82.10;63713.47;5087019;28;20216;-73
2023/08/08 06:53:07;;;;;;;1.58;1.48;;;;;;;16.78;82.68;63735.22;5086893;28;20223;-75
2023/08/08 06:55:34;;;;;;;1.52;1.50;;;;;;;17.05;80.82;63757.66;5087172;28;20496;-75
2023/08/08 06:58:01;;;;;;;1.63;1.52;;;;;;;17.16;80.15;63774.78;5087249;28;20291;-75
2023/08/08 07:00:29;;;;;;;1.65;1.65;;;;;;;17.48;79.37;63807.56;5090796;28;20196;-73
2023/08/08 07:02:56;;;;;;;1.42;1.42;;;;;;;17.32;81.41;63783.19;5086590;28;20266;-75
2023/08/08 07:05:23;;;;;;;1.90;1.80;;;;;;;16.67;84.47;63726.34;5086885;28;20234;-75
2023/08/08 07:07:51;;;;;;;1.17;1.17;;;;;;;16.47;78.71;63702.97;5087893;28;20241;-73
2023/08/08 07:10:20;;;;;;;1.80;1.80;;;;;;;16.80;79.93;63744.50;5087458;28;20193;-76
2023/08/08 07:12:47;;;;;;;1.58;1.58;;;;;;;17.02;81.68;63757.63;5086559;28;20569;-75
2023/08/08 07:15:14;;;;;;;1.67;1.67;;;;;;;16.78;79.70;63730.09;5088672;28;20196;-74
2023/08/08 07:17:42;;;;;;;1.58;1.55;;;;;;;16.57;83.21;63713.38;5086130;28;20250;-76
2023/08/08 07:20:13;;;;;;;1.55;1.55;;;;;;;16.94;82.68;63746.75;5086545;28;20196;-74
2023/08/08 07:22:41;;;;;;;0.90;0.90;;;;;;;17.05;74.14;63763.31;5086530;28;20214;-76
2023/08/08 07:25:08;;;;;;;1.30;1.20;;;;;;;16.87;75.34;63742.03;5088708;28;20259;-75
2023/08/08 07:27:37;;;;;;;1.35;1.35;;;;;;;16.86;74.56;63737.91;5086315;28;20195;-75
2023/08/08 07:30:04;;;;;;;1.40;1.40;;;;;;;16.43;80.45;63698.78;5087371;28;20219;-74
2023/08/08 07:32:31;;;;;;;1.63;1.63;;;;;;;16.76;80.02;63732.63;5086146;28;20196;-76
2023/08/08 07:34:57;;;;;;;2.70;1.25;;;;;;;16.95;75.51;63750.34;5086083;28;20202;-75
2023/08/08 07:37:24;;;;;;;1.20;1.20;;;;;;;17.10;75.48;63762.88;5086760;28;20204;-76
2023/08/08 07:39:52;;;;;;;1.25;1.10;;;;;;;17.07;73.96;63762.84;5086450;28;20216;-77
2023/08/08 07:42:19;;;;;;;1.00;1.00;;;;;;;17.06;73.53;63764.38;5088031;28;20234;-76
2023/08/08 07:44:47;;;;;;;1.20;1.20;;;;;;;16.88;74.91;63745.63;5087950;28;20242;-76
2023/08/08 07:47:14;;;;;;;1.00;1.00;;;;;;;16.90;75.10;63747.72;5085550;28;20246;-75
2023/08/08 07:49:41;;;;;;;1.13;1.13;;;;;;;17.07;74.95;63762.84;5085722;28;20238;-75
2023/08/08 07:52:08;;;;;;;1.45;1.15;;;;;;;17.43;73.22;63799.78;5086319;28;20200;-75
2023/08/08 07:54:36;;;;;;;1.15;1.05;;;;;;;17.54;69.35;63810.72;5086232;28;20223;-75
2023/08/08 07:57:03;;;;;;;1.10;1.10;;;;;;;17.01;72.21;63756.06;5085360;28;20241;-76
2023/08/08 07:59:31;;;;;;;1.70;1.00;;;;;;;16.96;73.28;63748.28;5087805;28;20223;-75
2023/08/08 08:02:00;;;;;;;1.35;1.25;;;;;;;17.29;72.03;63785.22;5086464;28;20277;-76
2023/08/08 08:04:27;;;;;;;1.17;1.17;;;;;;;17.24;73.38;63780.00;5084094;28;20274;-75
2023/08/08 08:06:54;;;;;;;1.13;1.10;;;;;;;17.26;75.61;63777.47;5086032;28;20264;-76
2023/08/08 08:09:21;;;;;;;1.45;1.30;;;;;;;17.64;72.83;63821.16;5085629;28;20266;-77
2023/08/08 08:11:48;;;;;;;1.02;1.02;;;;;;;17.77;69.21;63837.78;5085535;28;20193;-75
2023/08/08 08:14:15;;;;;;;1.75;1.65;;;;;;;18.09;69.12;63868.00;5086159;28;20245;-73
2023/08/08 08:16:42;;;;;;;1.40;1.30;;;;;;;17.61;71.04;63821.13;5087001;28;20196;-74
2023/08/08 08:19:11;;;;;;;1.20;1.02;;;;;;;17.86;69.32;63844.56;5084870;28;20222;-77
2023/08/08 08:21:39;;;;;;;1.02;1.02;;;;;;;18.19;63.52;63878.97;5085868;28;20242;-76
2023/08/08 08:24:06;;;;;;;3.08;1.33;;;;;;;18.46;62.82;63906.59;5085200;28;20235;-76
2023/08/08 08:26:33;;;;;;;1.15;1.15;;;;;;;18.08;64.80;63864.94;5085060;28;20526;-76
2023/08/08 08:29:00;;;;;;;1.00;1.00;;;;;;;18.36;63.84;63893.59;5086249;28;20222;-76
2023/08/08 08:31:27;;;;;;;1.00;1.00;;;;;;;18.47;60.76;63904.53;5085761;28;20192;-73
2023/08/08 08:33:55;;;;;;;1.10;1.10;;;;;;;18.55;61.39;63915.44;5086369;28;20220;-76
2023/08/08 08:36:25;;;;;;;1.42;1.33;;;;;;;18.00;64.40;63861.75;5085067;28;20192;-76
2023/08/08 08:38:53;;;;;;;1.60;1.30;;;;;;;17.57;62.58;63813.88;5084076;28;20283;-75
2023/08/08 08:41:24;;;;;;;1.30;1.20;;;;;;;17.68;60.59;63828.41;5084974;28;20246;-75
2023/08/08 08:43:51;;;;;;;1.13;1.13;;;;;;;17.59;62.12;63815.94;5085500;28;20232;-77
2023/08/08 08:46:22;;;;;;;1.27;1.27;;;;;;;17.88;65.62;63849.25;5085732;28;20268;-75
2023/08/08 08:48:50;;;;;;;1.08;1.08;;;;;;;17.83;64.57;63846.09;5086478;28;20216;-75
2023/08/08 08:51:17;;;;;;;1.70;1.40;;;;;;;17.68;67.87;63831.00;5084355;28;20234;-77
2023/08/08 08:53:46;;;;;;;1.00;1.00;;;;;;;18.08;63.40;63864.41;5084677;28;20269;-76
2023/08/08 08:56:15;;;;;;;1.33;1.23;;;;;;;18.40;62.03;63900.88;5085494;28;20191;-77
2023/08/08 08:58:43;;;;;;;1.20;1.20;;;;;;;18.36;58.33;63896.66;5085156;28;20212;-78
2023/08/08 09:01:10;;;;;;;1.20;1.10;;;;;;;18.17;59.53;63878.94;5088778;28;20231;-75
2023/08/08 09:03:38;;;;;;;1.95;1.38;;;;;;;17.89;64.05;63847.19;5084175;28;20265;-75
2023/08/08 09:06:05;;;;;;;1.88;1.88;;;;;;;17.93;67.45;63851.88;5085963;28;20223;-75
2023/08/08 09:08:32;;;;;;;1.67;1.67;;;;;;;18.01;64.01;63859.69;5083855;28;20283;-76
2023/08/08 09:11:01;;;;;;;1.70;1.60;;;;;;;18.46;63.47;63906.59;5085085;28;20192;-74
2023/08/08 09:13:34;;;;;;;3.38;1.70;;;;;;;18.81;61.80;63943.06;5084937;28;20246;-77
2023/08/08 09:16:02;;;;;;;2.03;1.55;;;;;;;18.68;60.60;63932.09;5090063;28;20180;-76
2023/08/08 09:18:28;;;;;;;2.13;2.03;;;;;;;18.35;62.70;63898.22;5089143;28;20215;-75
2023/08/08 09:20:55;;;;;;;2.10;1.50;;;;;;;18.68;56.90;63934.16;5089637;28;20200;-76
2023/08/08 09:23:22;;;;;;;1.30;1.30;;;;;;;18.73;57.62;63936.78;5088420;28;20383;-76
2023/08/08 09:25:49;;;;;;;1.08;1.08;;;;;;;18.80;58.88;63944.06;5088955;28;20276;-73
2023/08/08 09:28:18;;;;;;;1.70;1.60;;;;;;;17.74;62.13;63839.81;5088371;28;20219;-74
2023/08/08 09:30:45;;;;;;;1.08;1.08;;;;;;;17.35;62.67;63794.03;5089862;28;20191;-75
2023/08/08 09:33:13;;;;;;;1.40;1.40;;;;;;;17.59;63.27;63818.50;5089041;28;20216;-75
2023/08/08 09:35:40;;;;;;;1.25;1.25;;;;;;;18.03;58.60;63866.94;5088880;28;20233;-76
2023/08/08 09:38:07;;;;;;;2.15;1.70;;;;;;;18.25;63.61;63887.28;5088659;28;20224;-75
2023/08/08 09:40:35;;;;;;;1.45;1.45;;;;;;;18.44;62.63;63904.50;5090167;28;20196;-75
2023/08/08 09:43:02;;;;;;;1.60;1.60;;;;;;;18.43;62.14;63903.47;5089005;28;20408;-75
2023/08/08 09:45:38;;;;;;;1.73;1.63;;;;;;;18.39;61.31;63897.22;5089892;28;20227;-75
2023/08/08 09:48:07;;;;;;;1.50;1.42;;;;;;;18.13;61.18;63872.19;5089383;28;20243;-76
2023/08/08 09:50:34;;;;;;;2.10;2.00;;;;;;;18.19;61.34;63884.13;5089316;28;20192;-76
2023/08/08 09:53:02;;;;;;;1.15;1.15;;;;;;;18.14;64.13;63870.66;5088082;28;20219;-75
2023/08/08 09:55:30;;;;;;;1.67;1.58;;;;;;;18.10;62.05;63869.06;5089130;28;20215;-75
2023/08/08 09:57:58;;;;;;;12.00;9.77;;;;;;;18.26;60.21;63888.81;5089139;28;20234;-75
2023/08/08 10:00:27;;;;;;;1.50;1.50;;;;;;;18.54;59.12;63914.41;5089018;28;20378;-74
2023/08/08 10:02:56;;;;;;;1.55;1.48;;;;;;;18.65;58.10;63928.44;5088542;28;20568;-76
2023/08/08 10:05:24;;;;;;;1.92;1.67;;;;;;;18.82;58.78;63946.69;5088204;28;20232;-76
2023/08/08 10:07:52;;;;;;;1.70;1.70;;;;;;;19.11;56.97;63976.41;5087991;28;20203;-73
2023/08/08 10:10:20;;;;;;;1.52;1.50;;;;;;;19.25;56.51;63986.38;5088454;28;20195;-76
2023/08/08 10:12:49;;;;;;;1.50;1.50;;;;;;;19.19;55.26;63985.25;5090379;28;20203;-78
2023/08/08 10:15:16;;;;;;;1.67;1.58;;;;;;;19.22;54.40;63985.28;5089449;28;20234;-75
2023/08/08 10:17:44;;;;;;;1.40;1.40;;;;;;;19.08;54.09;63975.84;5087222;28;20192;-75
2023/08/08 10:20:12;;;;;;;1.42;1.42;;;;;;;19.06;56.74;63971.72;5088913;28;20245;-77
2023/08/08 10:22:44;;;;;;;2.00;2.00;;;;;;;19.21;56.91;63984.25;5088257;28;20203;-78
2023/08/08 10:25:18;;;;;;;1.50;1.50;;;;;;;19.43;56.43;64007.22;5088227;28;20261;-75
2023/08/08 10:27:45;;;;;;;1.40;1.30;;;;;;;19.48;55.17;64015.53;5087990;28;20209;-76
2023/08/08 10:30:14;;;;;;;1.48;1.48;;;;;;;19.66;55.24;64033.25;5089337;28;20276;-76
2023/08/08 10:32:42;;;;;;;1.52;1.42;;;;;;;19.52;54.29;64016.59;5090915;28;20215;-76
2023/08/08 10:35:11;;;;;;;1.55;1.50;;;;;;;19.63;53.00;64028.06;5087016;28;20200;-77
2023/08/08 10:37:41;;;;;;;2.67;1.45;;;;;;;19.27;53.51;63990.50;5087258;28;20230;-76
2023/08/08 10:40:11;;;;;;;1.98;1.88;;;;;;;19.30;53.92;63996.75;5089363;28;20195;-76
2023/08/08 10:42:45;;;;;;;1.73;1.60;;;;;;;18.81;54.85;63940.47;5087861;28;20271;-76
2023/08/08 10:45:13;;;;;;;1.40;1.40;;;;;;;18.99;56.38;63961.84;5087559;28;20446;-74
2023/08/08 10:47:41;;;;;;;1.33;1.33;;;;;;;19.18;54.12;63981.66;5089934;28;20204;-76
2023/08/08 10:50:11;;;;;;;1.65;1.60;;;;;;;19.40;53.75;64006.66;5088574;28;20187;-76
2023/08/08 10:52:54;;;;;;;1.25;1.25;;;;;;;19.46;52.21;64008.28;5087569;28;20196;-76
2023/08/08 10:55:23;;;;;;;1.10;1.10;;;;;;;19.15;53.75;63978.53;5087094;28;20204;-73
2023/08/08 10:57:58;;;;;;;0.90;0.90;;;;;;;19.44;52.11;64013.41;5087414;28;20267;-77
2023/08/08 11:00:29;;;;;;;0.90;0.90;;;;;;;19.11;53.04;63974.34;5086871;28;20488;-76
2023/08/08 11:02:56;;;;;;;1.15;1.15;;;;;;;19.39;53.11;64003.56;5088823;28;20283;-75
2023/08/08 11:05:23;;;;;;;1.17;1.17;;;;;;;19.60;52.54;64022.34;5086922;28;20227;-77
2023/08/08 11:07:52;;;;;;;1.15;1.15;;;;;;;19.49;52.73;64014.00;5085741;28;20188;-75
2023/08/08 11:10:19;;;;;;;4.68;1.40;;;;;;;19.51;52.67;64015.56;5085650;28;20226;-76
2023/08/08 11:12:56;;;;;;;1.77;1.40;;;;;;;19.29;53.88;63993.09;5085662;28;20228;-77
2023/08/08 11:15:27;;;;;;;1.40;1.30;;;;;;;19.82;52.96;64049.94;5086876;28;20203;-77
2023/08/08 11:17:54;;;;;;;1.30;1.30;;;;;;;20.12;50.71;64081.75;5089908;28;20212;-78
2023/08/08 11:20:21;;;;;;;1.90;1.10;;;;;;;19.83;50.67;64048.41;5085563;28;20237;-75
2023/08/08 11:22:53;;;;;;;1.20;1.20;;;;;;;20.11;49.97;64075.03;5086872;28;20192;-74
2023/08/08 11:25:21;;;;;;;1.40;1.25;;;;;;;20.17;50.67;64083.91;5085392;28;20547;-74
2023/08/08 11:27:52;;;;;;;1.52;1.42;;;;;;;20.15;51.78;64086.97;5084814;28;20192;-75
2023/08/08 11:30:19;;;;;;;1.10;1.10;;;;;;;19.64;52.33;64034.28;5086252;28;20199;-77
2023/08/08 11:32:47;;;;;;;1.00;1.00;;;;;;;19.53;52.62;64017.63;5080267;28;20197;-74